Pays
Station

 

Conditions  météo  pour  Khoy  -  République Islamique d'Iran    République Islamique d

  
14 °C
    
 
 

METAR pour Khoy :

OITK 250430Z 03002KT CAVOK 14/14 Q1013

 

Voici le bulletin pour Khoy - République Islamique d'Iran.
 
Le bulletin a été fait il y a 9 heures et 20 minutes, à 04:30 UTC .
Le vent soufflait à la vitesse de 1.0 mètres par seconde de Nord/Nord-est (030°).
 
La température était de 14 °C, avec un point de rosée à 14 °C.
La pression atmosphérique était de 1013 hPa.
L'humidité relative était de 100.0%.
 
Il y avait pas de nuages en-dessous de 1500 mètres et pas de cumulonimbus.
 
La visibilité globale était de supérieure à 10 kilomètres.
 

 
 
 

Pays :   A   B   C   D   E   F   G   H   I   J   K   L   M   N   O   P   Q   R   S   T   U   V   W   Y   Z

 

Partenaires :  Info Météo avec Met'info
Météo Marine avec MeteoMarine.net
Infos Site  |  Infos Légales  |  Crédits  |  Confidentialité
Contactez-nous  |  Ajouter aux favoris
© 2013-2020 METAR - Tous droits réservés